Impacts TAF Board
For situational awareness. Not to be used for flight planning purposes.
IDs:

KHUM - Houma/Terrebonne Arp, LA, US

Issued at 2324 UTC 22 Sep 2018
Updated at 0226 UTC 23 Sep 2018
Potential Impact None Slight Moderate High
Time0215Z 23/03Z 23/04Z 23/05Z 23/06Z 23/07Z 23/08Z 23/09Z 23/10Z 23/11Z 23/12Z 23/13Z 23/14Z 23/15Z>>
Type OBS PRVL
  [TEMP]  
PRVL PRVL PRVL PRVL PRVL PRVL PRVL PRVL PRVL PRVL PRVL PRVL
VIS 10 >6 >6 >6 >6 >6 >6 >6 >6 >6 6 6 6 6
CIG -- 100
  [20]  
100 -- -- -- -- -- -- -- 90 90 90 90
Cover CLR BKN
  [BKN]  
BKN SCT SCT SCT SCT SCT SCT SCT BKN BKN BKN BKN
FltCat VFR VFR
  [MVFR]  
VFR VFR VFR VFR VFR VFR VFR VFR VFR VFR VFR VFR
WX -- VCTS
  [--]  
VCTS -- -- -- -- -- -- -- SHRA VCTS SHRA VCTS SHRA VCTS SHRA VCTS
WDir VRB VRB
[VRB]
VRB VRB VRB VRB VRB VRB VRB VRB VRB VRB VRB VRB
WSpd 0 3
  [3]  
3 0 0 0 0 0 0 0 3 3 3 3
WGst -- --
  [--]  
-- -- -- -- -- -- -- -- -- -- -- --
Raw TAF
KHUM 222324Z 2300/2324 VRB03KT P6SM VCTS SCT020CB BKN100
  TEMPO 2300/2304 BKN020CB
  FM230500 00000KT P6SM FEW015 SCT110
  FM231200 VRB03KT 6SM SHRA VCTS SCT025CB BKN090
  FM231800 16005KT P6SM SCT030 BKN040
  PROB30 2318/2324 4SM TSRA BKN030CB


Raw METAR
KHUM 230215Z AUTO 00000KT 10SM CLR 24/23 A2997 RMK AO2 T02360229
KHUM 230155Z AUTO 00000KT 10SM CLR 24/23 A2997 RMK AO2 T02400230
KHUM 230135Z AUTO 00000KT 10SM CLR 24/23 A2996 RMK AO2 T02380232
KHUM 230115Z AUTO 00000KT 10SM CLR 24/23 A2995 RMK AO2 T02430233
KHUM 230055Z AUTO 08005KT 10SM CLR 25/23 A2995 RMK AO2 T02450233
KHUM 230035Z AUTO 00000KT 10SM -RA CLR 24/24 A2996 RMK AO2 T02430235
KHUM 230015Z AUTO 08003KT 7SM SCT050 24/24 A2996 RMK AO2 T02420235
KHUM 222350Z 04008KT 6SM BR BKN030 24/23 A2996 RMK LAST

METAR Board
Radar Display
Forecast Discussion
For situational awareness. Not to be used for flight planning purposes.